Terminal Aerodrome Forecast
Issued by NWS

Home | Current Version | Previous Version | Text Only | Print | Product List | Glossary On
Versions: 1 2 3 4 5 6 7 8 9 10 11 12 13 14 15
000
FTUS42 KMLB 191700 RRA
TAFISM
TAF
KISM 191742Z 1918/2018 09007KT P6SM VCSH SCT030 SCT110 OVC150
     FM192000 05008KT 6SM -RA SCT030 BKN060 OVC100
     FM200000 04006KT P6SM VCSH BKN030 OVC060
     FM201400 VRB04KT P6SM VCSH BKN030 OVC060=

USA.gov is the U.S. government's official web portal to all federal, state and local government web resources and services.